createdAt,value
2022-12-15T00:03:10.934Z,36.37
2022-12-15T00:06:33.556Z,39.20
2022-12-15T00:09:54.853Z,34.40
2022-12-15T00:13:16.029Z,35.53
2022-12-15T00:16:36.786Z,34.27
2022-12-15T00:19:57.849Z,35.03
2022-12-15T00:23:27.964Z,35.63
2022-12-15T00:26:49.417Z,33.20
2022-12-15T00:30:10.471Z,34.23
2022-12-15T00:33:31.609Z,33.93
2022-12-15T00:36:52.620Z,32.83
2022-12-15T00:40:00.206Z,33.00
2022-12-15T00:43:04.241Z,39.60
2022-12-15T00:46:25.684Z,35.63
2022-12-15T00:49:48.222Z,47.93
2022-12-15T00:53:09.277Z,33.87
2022-12-15T00:56:32.067Z,109.67
2022-12-15T00:59:53.227Z,30.70
2022-12-15T01:03:14.423Z,43.73
2022-12-15T01:06:38.656Z,33.43
2022-12-15T01:09:59.735Z,42.00
2022-12-15T01:13:23.249Z,32.83
2022-12-15T01:16:44.307Z,30.17
2022-12-15T01:20:05.271Z,33.00
2022-12-15T01:23:09.016Z,74.10
2022-12-15T01:26:12.790Z,35.93
2022-12-15T01:29:17.989Z,36.87
2022-12-15T01:32:21.750Z,44.90
2022-12-15T01:35:27.017Z,46.53
2022-12-15T01:38:30.967Z,46.23
2022-12-15T01:41:33.451Z,50.13
2022-12-15T01:44:39.651Z,34.80
2022-12-15T01:47:44.019Z,46.13
2022-12-15T01:50:55.019Z,40.93
2022-12-15T01:54:04.551Z,42.90
2022-12-15T01:57:12.166Z,47.17
2022-12-15T02:00:17.729Z,49.80
2022-12-15T02:03:21.872Z,54.63
2022-12-15T02:06:27.933Z,45.87
2022-12-15T02:09:32.381Z,46.57
2022-12-15T02:12:41.797Z,55.87
2022-12-15T02:15:52.758Z,50.03
2022-12-15T02:19:04.689Z,51.80
2022-12-15T02:22:24.596Z,47.20
2022-12-15T02:25:50.753Z,50.53
2022-12-15T02:29:04.197Z,46.30
2022-12-15T02:32:13.714Z,59.00
2022-12-15T02:35:22.029Z,44.97
2022-12-15T02:38:33.905Z,47.90
2022-12-15T02:41:39.840Z,46.37
2022-12-15T02:44:48.729Z,47.13
2022-12-15T02:48:05.390Z,49.57
2022-12-15T02:51:27.630Z,53.17
2022-12-15T02:54:42.679Z,55.13
2022-12-15T02:57:54.676Z,50.77
2022-12-15T03:01:03.415Z,54.10
2022-12-15T03:04:12.181Z,52.90
2022-12-15T03:07:16.103Z,51.20
2022-12-15T03:10:21.699Z,52.73
2022-12-15T03:13:25.596Z,54.17
2022-12-15T03:16:29.456Z,47.93
2022-12-15T03:19:34.651Z,57.50
2022-12-15T03:22:39.436Z,52.67
2022-12-15T03:25:43.177Z,44.10
2022-12-15T03:28:46.870Z,38.13
2022-12-15T03:31:50.577Z,46.43
2022-12-15T03:34:55.740Z,38.20
2022-12-15T03:37:59.518Z,40.07
2022-12-15T03:41:03.265Z,50.07
2022-12-15T03:44:07.178Z,61.17
2022-12-15T03:47:10.938Z,63.00
2022-12-15T03:50:18.100Z,46.53
2022-12-15T03:53:21.900Z,45.53
2022-12-15T03:56:25.502Z,38.80
2022-12-15T03:59:29.269Z,45.73
2022-12-15T04:02:33.185Z,44.20
2022-12-15T04:05:39.131Z,41.40
2022-12-15T04:08:42.887Z,39.13
2022-12-15T04:11:46.677Z,40.80
2022-12-15T04:14:50.251Z,41.10
2022-12-15T04:17:54.077Z,46.87
2022-12-15T04:20:59.296Z,40.13
2022-12-15T04:24:20.496Z,39.70
2022-12-15T04:27:41.686Z,41.17
2022-12-15T04:31:06.540Z,42.93
2022-12-15T04:34:32.781Z,41.83
2022-12-15T04:37:55.475Z,46.40
2022-12-15T04:41:16.686Z,42.10
2022-12-15T04:44:37.821Z,44.03
2022-12-15T04:47:59.338Z,39.47
2022-12-15T04:51:20.288Z,44.13
2022-12-15T04:54:42.464Z,40.93
2022-12-15T04:58:03.216Z,42.73
2022-12-15T05:01:24.767Z,46.43
2022-12-15T05:04:45.877Z,37.10
2022-12-15T05:08:06.931Z,42.77
2022-12-15T05:11:29.495Z,43.67
2022-12-15T05:14:50.681Z,43.10
2022-12-15T05:18:11.820Z,45.47
2022-12-15T05:21:32.917Z,45.37
2022-12-15T05:24:53.655Z,44.93
2022-12-15T05:28:15.786Z,40.63
2022-12-15T05:31:36.896Z,40.33
2022-12-15T05:34:40.702Z,43.37
2022-12-15T05:37:44.524Z,45.77
2022-12-15T05:40:48.136Z,46.00
2022-12-15T05:43:53.376Z,44.00
2022-12-15T05:46:57.140Z,48.00
2022-12-15T05:50:01.089Z,44.13
2022-12-15T05:53:04.796Z,49.03
2022-12-15T05:56:10.626Z,41.10
2022-12-15T05:59:16.799Z,44.07
2022-12-15T06:02:20.653Z,44.03
2022-12-15T06:05:24.618Z,51.27
2022-12-15T06:08:28.670Z,44.00
2022-12-15T06:11:32.407Z,43.30
2022-12-15T06:14:37.848Z,42.73
2022-12-15T06:17:41.637Z,46.77
2022-12-15T06:20:45.470Z,45.63
2022-12-15T06:23:54.476Z,42.77
2022-12-15T06:26:58.177Z,41.00
2022-12-15T06:30:03.353Z,45.43
2022-12-15T06:33:07.617Z,44.47
2022-12-15T06:36:13.827Z,40.73
2022-12-15T06:39:18.126Z,39.50
2022-12-15T06:42:22.046Z,43.67
2022-12-15T06:45:27.406Z,40.40
2022-12-15T06:48:31.856Z,37.80
2022-12-15T06:51:35.573Z,44.00
2022-12-15T06:54:39.230Z,41.53
2022-12-15T06:57:43.026Z,40.97
2022-12-15T07:00:48.390Z,43.07
2022-12-15T07:03:54.664Z,41.60
2022-12-15T07:06:58.636Z,44.53
2022-12-15T07:10:02.436Z,40.57
2022-12-15T07:13:06.206Z,40.47
2022-12-15T07:16:12.990Z,38.80
2022-12-15T07:19:16.727Z,41.67
2022-12-15T07:22:21.215Z,40.57
2022-12-15T07:25:25.176Z,38.43
2022-12-15T07:28:29.112Z,37.53
2022-12-15T07:31:34.496Z,38.10
2022-12-15T07:34:38.310Z,35.60
2022-12-15T07:37:42.097Z,38.67
2022-12-15T07:40:45.899Z,37.57
2022-12-15T07:43:49.796Z,39.20
2022-12-15T07:46:55.084Z,32.10
2022-12-15T07:49:59.111Z,36.43
2022-12-15T07:53:02.838Z,31.93
2022-12-15T07:56:09.550Z,36.40
2022-12-15T07:59:14.320Z,35.60
2022-12-15T08:02:20.193Z,34.90
2022-12-15T08:05:24.132Z,32.53
2022-12-15T08:08:27.856Z,37.77
2022-12-15T08:11:35.311Z,34.90
2022-12-15T08:14:39.126Z,35.13
2022-12-15T08:17:46.789Z,31.03
2022-12-15T08:20:51.152Z,35.57
2022-12-15T08:23:55.317Z,34.00
2022-12-15T08:27:00.307Z,30.90
2022-12-15T08:30:04.238Z,29.47
2022-12-15T08:33:09.552Z,31.80
2022-12-15T08:36:15.268Z,31.00
2022-12-15T08:39:19.049Z,30.30
2022-12-15T08:42:22.787Z,30.73
2022-12-15T08:45:26.508Z,28.87
2022-12-15T08:48:31.652Z,29.00
2022-12-15T08:51:35.741Z,27.57
2022-12-15T08:54:39.331Z,25.03
2022-12-15T08:57:43.191Z,23.80
2022-12-15T09:00:47.528Z,26.90
2022-12-15T09:03:54.145Z,26.57
2022-12-15T09:06:58.369Z,22.53
2022-12-15T09:10:02.278Z,20.77
2022-12-15T09:13:06.044Z,21.43
2022-12-15T09:16:14.797Z,21.03
2022-12-15T09:19:20.521Z,22.60
2022-12-15T09:22:24.381Z,20.30
2022-12-15T09:25:28.082Z,20.97
2022-12-15T09:28:32.307Z,24.00
2022-12-15T09:31:39.317Z,25.53
2022-12-15T09:34:44.561Z,23.00
2022-12-15T09:37:51.770Z,19.40
2022-12-15T09:40:56.253Z,19.30
2022-12-15T09:44:04.042Z,21.63
2022-12-15T09:47:18.655Z,21.43
2022-12-15T09:50:29.571Z,24.77
2022-12-15T09:53:57.720Z,20.03
2022-12-15T09:56:59.639Z,19.27
2022-12-15T10:00:21.459Z,19.20
2022-12-15T10:03:34.953Z,20.17
2022-12-15T10:06:50.654Z,20.33
2022-12-15T10:09:54.813Z,20.17
2022-12-15T10:13:04.511Z,20.67
2022-12-15T10:16:19.939Z,18.00
2022-12-15T10:19:33.101Z,19.47
2022-12-15T10:22:39.286Z,19.93
2022-12-15T10:25:48.559Z,18.07
2022-12-15T10:29:07.962Z,20.20
2022-12-15T10:32:20.088Z,20.50
2022-12-15T10:35:25.663Z,22.33
2022-12-15T10:38:38.064Z,16.97
2022-12-15T10:41:41.851Z,22.37
2022-12-15T10:44:50.616Z,21.27
2022-12-15T10:48:02.748Z,21.00
2022-12-15T10:51:16.922Z,23.50
2022-12-15T10:54:23.287Z,23.53
2022-12-15T10:57:30.629Z,25.97
2022-12-15T11:00:35.576Z,23.07
2022-12-15T11:03:40.925Z,26.00
2022-12-15T11:06:45.229Z,24.90
2022-12-15T11:09:59.902Z,21.93
2022-12-15T11:13:16.067Z,29.43
2022-12-15T11:16:21.007Z,30.50
2022-12-15T11:19:37.620Z,23.27
2022-12-15T11:22:45.981Z,24.17
2022-12-15T11:26:08.489Z,26.43
2022-12-15T11:29:23.068Z,26.47
2022-12-15T11:32:30.151Z,26.77
2022-12-15T11:35:48.990Z,26.10
2022-12-15T11:39:01.439Z,27.27
2022-12-15T11:42:13.481Z,24.93
2022-12-15T11:45:22.490Z,35.40
2022-12-15T11:48:36.652Z,28.33
2022-12-15T11:51:45.909Z,26.50
2022-12-15T11:54:57.175Z,20.87
2022-12-15T11:58:20.680Z,20.50
2022-12-15T12:01:51.622Z,19.37
2022-12-15T12:05:15.720Z,35.33
2022-12-15T12:08:36.767Z,22.43
2022-12-15T12:11:46.307Z,27.57
2022-12-15T12:15:09.527Z,24.63
2022-12-15T12:18:19.936Z,21.27
2022-12-15T12:21:29.081Z,24.17
2022-12-15T12:24:38.910Z,26.83
2022-12-15T12:27:50.483Z,25.47
2022-12-15T12:30:59.908Z,27.47
2022-12-15T12:34:10.761Z,30.47
2022-12-15T12:37:23.170Z,26.83
2022-12-15T12:40:32.899Z,36.77
2022-12-15T12:43:41.957Z,143.67
2022-12-15T12:46:51.571Z,50.10
2022-12-15T12:49:59.212Z,26.67
2022-12-15T12:53:04.837Z,27.93
2022-12-15T12:56:08.962Z,24.73
2022-12-15T12:59:42.328Z,25.07
2022-12-15T13:02:55.754Z,21.77
2022-12-15T13:06:00.097Z,27.93
2022-12-15T13:09:23.871Z,24.80
2022-12-15T13:12:51.986Z,28.87
2022-12-15T13:16:06.450Z,34.87
2022-12-15T13:19:11.747Z,36.67
2022-12-15T13:22:26.477Z,35.80
2022-12-15T13:25:42.210Z,36.20
2022-12-15T13:28:51.544Z,33.80
2022-12-15T13:31:55.599Z,38.40
2022-12-15T13:35:06.521Z,27.23
2022-12-15T13:38:19.109Z,40.60
2022-12-15T13:41:26.442Z,44.00
2022-12-15T13:44:33.871Z,44.27
2022-12-15T13:47:38.328Z,37.90
2022-12-15T13:50:51.445Z,33.97
2022-12-15T13:54:00.421Z,49.77
2022-12-15T13:57:06.698Z,38.57
2022-12-15T14:00:18.858Z,35.63
2022-12-15T14:03:23.206Z,33.40
2022-12-15T14:06:31.390Z,26.27
2022-12-15T14:09:40.227Z,26.47
2022-12-15T14:12:44.297Z,36.60
2022-12-15T14:15:52.567Z,30.13
2022-12-15T14:19:06.876Z,27.67
2022-12-15T14:22:30.730Z,27.50
2022-12-15T14:25:34.777Z,32.93
2022-12-15T14:28:40.703Z,41.03
2022-12-15T14:31:48.473Z,49.50
2022-12-15T14:34:52.471Z,39.80
2022-12-15T14:38:00.111Z,41.53
2022-12-15T14:41:06.061Z,45.97
2022-12-15T14:44:31.477Z,61.90
2022-12-15T14:47:42.282Z,55.33
2022-12-15T14:50:49.338Z,80.20
2022-12-15T14:53:56.992Z,60.27
2022-12-15T14:57:05.672Z,83.80
2022-12-15T15:00:26.177Z,70.33
2022-12-15T15:03:38.585Z,75.37
2022-12-15T15:06:44.384Z,75.17
2022-12-15T15:09:54.518Z,90.87
2022-12-15T15:12:58.428Z,89.53
2022-12-15T15:16:06.712Z,128.33
2022-12-15T15:19:21.207Z,112.23
2022-12-15T15:22:41.889Z,113.33
2022-12-15T15:25:54.082Z,96.40
2022-12-15T15:28:58.125Z,88.57
2022-12-15T15:32:07.962Z,81.27
2022-12-15T15:35:11.802Z,91.33
2022-12-15T15:38:23.297Z,84.23
2022-12-15T15:41:32.075Z,82.63
2022-12-15T15:44:35.783Z,89.50
2022-12-15T15:47:39.722Z,145.30
2022-12-15T15:50:44.741Z,78.60
2022-12-15T15:53:49.031Z,81.67
2022-12-15T15:56:54.228Z,77.37
2022-12-15T15:59:59.903Z,91.20
2022-12-15T16:03:03.827Z,72.53
2022-12-15T16:06:16.091Z,76.13
2022-12-15T16:09:20.000Z,84.83
2022-12-15T16:12:29.853Z,88.90
2022-12-15T16:15:33.735Z,86.43
2022-12-15T16:18:37.493Z,106.23
2022-12-15T16:21:42.248Z,108.73
2022-12-15T16:24:46.264Z,119.07
2022-12-15T16:27:51.534Z,129.90
2022-12-15T16:30:55.984Z,128.53
2022-12-15T16:34:00.548Z,115.27
2022-12-15T16:37:04.820Z,82.13
2022-12-15T16:40:17.207Z,92.03
2022-12-15T16:43:23.929Z,94.53
2022-12-15T16:46:27.765Z,89.77
2022-12-15T16:49:33.971Z,79.93
2022-12-15T16:52:44.773Z,96.60
2022-12-15T16:55:50.148Z,87.10
2022-12-15T16:59:15.449Z,87.43
2022-12-15T17:02:27.260Z,102.40
2022-12-15T17:05:34.943Z,85.37
2022-12-15T17:08:41.609Z,82.70
2022-12-15T17:11:45.335Z,104.70
2022-12-15T17:14:50.627Z,148.53
2022-12-15T17:17:56.194Z,133.03
2022-12-15T17:21:04.688Z,111.33
2022-12-15T17:24:13.661Z,120.60
2022-12-15T17:27:27.953Z,88.93
2022-12-15T17:30:33.214Z,100.77
2022-12-15T17:33:36.996Z,120.97
2022-12-15T17:36:41.001Z,102.43
2022-12-15T17:39:51.262Z,97.17
2022-12-15T17:42:55.408Z,103.77
2022-12-15T17:46:00.769Z,121.63
2022-12-15T17:49:04.848Z,157.97
2022-12-15T17:52:18.026Z,120.70
2022-12-15T17:55:34.614Z,124.80
2022-12-15T17:58:39.760Z,118.93
2022-12-15T18:01:45.157Z,145.13
2022-12-15T18:04:48.954Z,140.10
2022-12-15T18:07:56.502Z,152.33
2022-12-15T18:11:00.478Z,164.50
2022-12-15T18:14:05.018Z,159.63
2022-12-15T18:17:10.262Z,148.47
2022-12-15T18:20:14.034Z,154.70
2022-12-15T18:23:20.126Z,203.23
2022-12-15T18:26:24.038Z,233.50
2022-12-15T18:29:27.809Z,191.80
2022-12-15T18:32:38.440Z,155.67
2022-12-15T18:35:43.761Z,148.87
2022-12-15T18:38:47.533Z,140.23
2022-12-15T18:41:52.128Z,134.57
2022-12-15T18:44:56.911Z,122.10
2022-12-15T18:48:02.119Z,130.20
2022-12-15T18:51:16.491Z,129.43
2022-12-15T18:54:22.527Z,120.97
2022-12-15T18:57:30.877Z,124.40
2022-12-15T19:00:35.191Z,112.77
2022-12-15T19:03:41.311Z,118.43
2022-12-15T19:06:46.418Z,137.37
2022-12-15T19:09:51.371Z,166.17
2022-12-15T19:12:58.533Z,149.77
2022-12-15T19:16:06.122Z,150.77
2022-12-15T19:19:31.186Z,137.23
2022-12-15T19:22:35.121Z,140.40
2022-12-15T19:25:39.982Z,127.97
2022-12-15T19:28:47.912Z,119.70
2022-12-15T19:31:52.292Z,117.37
2022-12-15T19:34:57.596Z,129.77
2022-12-15T19:38:03.190Z,123.67
2022-12-15T19:41:07.081Z,116.40
2022-12-15T19:44:16.020Z,141.73
2022-12-15T19:47:19.908Z,120.40
2022-12-15T19:50:27.468Z,124.50
2022-12-15T19:53:32.616Z,140.70
2022-12-15T19:56:36.944Z,121.67
2022-12-15T19:59:40.660Z,120.87
2022-12-15T20:02:44.869Z,133.20
2022-12-15T20:05:52.219Z,127.67
2022-12-15T20:08:57.565Z,138.37
2022-12-15T20:12:01.655Z,128.23
2022-12-15T20:15:19.346Z,137.47
2022-12-15T20:18:23.649Z,129.67
2022-12-15T20:21:32.835Z,139.57
2022-12-15T20:24:37.175Z,126.83
2022-12-15T20:27:41.048Z,115.90
2022-12-15T20:30:45.639Z,124.73
2022-12-15T20:33:49.979Z,142.40
2022-12-15T20:36:55.199Z,134.97
2022-12-15T20:39:58.942Z,136.10
2022-12-15T20:43:02.850Z,118.47
2022-12-15T20:46:08.749Z,116.23
2022-12-15T20:49:17.920Z,113.80
2022-12-15T20:52:26.456Z,90.17
2022-12-15T20:55:30.601Z,93.87
2022-12-15T20:58:40.421Z,92.10
2022-12-15T21:01:45.583Z,99.30
2022-12-15T21:04:49.970Z,94.63
2022-12-15T21:07:55.225Z,109.80
2022-12-15T21:11:02.925Z,94.73
2022-12-15T21:14:15.595Z,83.90
2022-12-15T21:17:21.249Z,103.03
2022-12-15T21:20:25.088Z,102.33
2022-12-15T21:23:32.465Z,131.07
2022-12-15T21:26:36.398Z,130.47
2022-12-15T21:29:40.048Z,113.47
2022-12-15T21:32:43.940Z,103.43
2022-12-15T21:35:49.164Z,106.70
2022-12-15T21:38:54.916Z,92.90
2022-12-15T21:42:01.609Z,82.70
2022-12-15T21:45:14.139Z,71.50
2022-12-15T21:48:35.635Z,67.03
2022-12-15T21:51:41.040Z,70.47
2022-12-15T21:54:46.249Z,71.20
2022-12-15T21:57:50.029Z,67.67
2022-12-15T22:00:55.699Z,73.20
2022-12-15T22:04:03.109Z,75.57
2022-12-15T22:07:08.177Z,61.13
2022-12-15T22:10:13.628Z,64.87
2022-12-15T22:13:20.857Z,64.20
2022-12-15T22:16:25.323Z,66.03
2022-12-15T22:19:29.416Z,64.33
2022-12-15T22:22:33.366Z,64.10
2022-12-15T22:25:38.668Z,61.80
2022-12-15T22:28:42.527Z,71.97
2022-12-15T22:31:46.501Z,61.33
2022-12-15T22:34:50.495Z,71.00
2022-12-15T22:37:56.548Z,67.30
2022-12-15T22:41:02.716Z,77.53
2022-12-15T22:44:06.776Z,74.20
2022-12-15T22:47:12.429Z,72.57
2022-12-15T22:50:19.215Z,66.70
2022-12-15T22:53:29.118Z,57.47
2022-12-15T22:56:40.961Z,62.93
2022-12-15T22:59:50.899Z,52.80
2022-12-15T23:02:55.533Z,55.80
2022-12-15T23:06:00.158Z,51.57
2022-12-15T23:09:03.856Z,48.27
2022-12-15T23:12:09.513Z,49.40
2022-12-15T23:15:30.279Z,54.97
2022-12-15T23:18:34.040Z,49.23
2022-12-15T23:21:38.179Z,46.23
2022-12-15T23:24:42.135Z,53.90
2022-12-15T23:27:47.450Z,47.73
2022-12-15T23:30:53.228Z,48.40
2022-12-15T23:33:57.125Z,54.63
2022-12-15T23:37:01.142Z,47.30
2022-12-15T23:40:05.930Z,48.97
2022-12-15T23:43:11.071Z,50.50
2022-12-15T23:46:15.261Z,48.63
2022-12-15T23:49:19.078Z,44.80
2022-12-15T23:52:22.856Z,42.30
2022-12-15T23:55:26.623Z,45.00
2022-12-15T23:58:31.800Z,43.40
